Time;durP1;ratioP1;P1;durP2;ratioP2;P2;SDS_P1;SDS_P2;PMS_P1;PMS_P2;Temp;Humidity;BMP_temperature;BMP_pressure;BME280_temperature;BME280_humidity;BME280_pressure;Samples;Min_cycle;Max_cycle;Signal;HPM_P1;HPM_P2
2023/03/04 00:00:07;;;;;;;1.23;0.35;;;;;;;6.29;97.73;100669.09;4975074;28;20051;-78
2023/03/04 00:02:36;;;;;;;1.17;0.30;;;;;;;6.35;98.53;100668.53;4968521;28;20053;-77
2023/03/04 00:05:04;;;;;;;0.95;0.57;;;;;;;6.32;100.00;100653.81;4971683;28;20051;-77
2023/03/04 00:07:33;;;;;;;2.70;1.10;;;;;;;6.39;99.42;100649.84;4961457;28;20141;-76
2023/03/04 00:10:01;;;;;;;2.30;0.45;;;;;;;6.42;99.27;100650.88;4961725;28;20047;-75
2023/03/04 00:12:30;;;;;;;3.35;0.60;;;;;;;6.41;98.95;100643.94;4967489;28;20047;-75
2023/03/04 00:14:59;;;;;;;0.60;0.30;;;;;;;6.36;100.00;100644.56;4968468;28;20055;-76
2023/03/04 00:17:30;;;;;;;2.20;0.50;;;;;;;6.37;100.00;100642.06;4969620;28;20117;-75
2023/03/04 00:19:59;;;;;;;2.75;0.60;;;;;;;6.40;100.00;100646.47;4968345;28;20457;-79
2023/03/04 00:22:27;;;;;;;1.75;0.77;;;;;;;6.41;100.00;100649.09;4966081;28;20047;-77
2023/03/04 00:24:56;;;;;;;1.98;0.68;;;;;;;6.40;100.00;100644.78;4969599;28;20051;-78
2023/03/04 00:27:24;;;;;;;1.77;0.57;;;;;;;6.39;100.00;100635.31;4968991;28;20047;-76
2023/03/04 00:29:53;;;;;;;3.50;0.88;;;;;;;6.41;100.00;100636.25;4969807;28;20081;-75
2023/03/04 00:32:21;;;;;;;1.02;0.60;;;;;;;6.41;100.00;100627.66;4968023;28;20043;-75
2023/03/04 00:34:51;;;;;;;2.42;0.60;;;;;;;6.36;100.00;100630.03;4971031;28;20050;-76
2023/03/04 00:37:20;;;;;;;3.85;1.77;;;;;;;6.45;100.00;100639.84;4968783;28;20046;-76
2023/03/04 00:39:48;;;;;;;4.30;2.05;;;;;;;6.46;100.00;100637.34;4969353;28;20043;-81
2023/03/04 00:42:17;;;;;;;5.07;2.55;;;;;;;6.47;100.00;100633.06;4971237;28;20050;-84
2023/03/04 00:44:45;;;;;;;4.60;1.80;;;;;;;6.44;100.00;100618.41;4964592;28;20492;-81
2023/03/04 00:47:14;;;;;;;4.82;1.90;;;;;;;6.44;100.00;100608.13;4970783;28;20069;-83
2023/03/04 00:49:42;;;;;;;2.28;1.30;;;;;;;6.45;100.00;100604.72;4970763;28;20382;-78
2023/03/04 00:52:12;;;;;;;2.20;0.80;;;;;;;6.41;100.00;100595.13;4968771;28;20101;-81
2023/03/04 00:54:41;;;;;;;2.80;1.15;;;;;;;6.39;100.00;100593.28;4972992;28;20105;-79
2023/03/04 00:57:09;;;;;;;1.70;0.60;;;;;;;6.35;100.00;100582.03;4969380;28;20050;-81
2023/03/04 00:59:39;;;;;;;0.77;0.47;;;;;;;6.32;100.00;100579.28;4963608;28;20051;-84
2023/03/04 01:02:08;;;;;;;1.90;0.82;;;;;;;6.33;100.00;100568.22;4967376;28;20407;-81
2023/03/04 01:04:37;;;;;;;2.13;0.77;;;;;;;6.35;100.00;100560.59;4967661;28;20113;-80
2023/03/04 01:07:05;;;;;;;2.83;1.05;;;;;;;6.36;100.00;100552.94;4954189;28;20055;-81
2023/03/04 01:09:35;;;;;;;5.10;2.00;;;;;;;6.39;100.00;100549.59;4951149;28;20054;-83
2023/03/04 01:12:04;;;;;;;2.53;1.10;;;;;;;6.37;100.00;100549.56;4957696;28;20141;-82
2023/03/04 01:14:33;;;;;;;2.15;0.90;;;;;;;6.34;100.00;100544.28;4953321;28;20051;-84
2023/03/04 01:17:01;;;;;;;1.77;0.80;;;;;;;6.27;98.72;100537.97;4948175;28;20609;-83
2023/03/04 01:19:30;;;;;;;1.52;0.50;;;;;;;6.19;98.85;100533.34;4945872;28;20055;-80
2023/03/04 01:21:58;;;;;;;3.17;1.08;;;;;;;6.13;100.00;100533.06;4946815;28;20039;-79
2023/03/04 01:24:28;;;;;;;4.78;0.93;;;;;;;6.07;100.00;100529.44;4953074;28;20070;-83
2023/03/04 01:26:59;;;;;;;3.78;0.77;;;;;;;6.08;100.00;100522.59;4953407;28;20073;-80
2023/03/04 01:29:27;;;;;;;4.75;0.70;;;;;;;6.11;100.00;100527.00;4950889;28;20059;-79
2023/03/04 01:31:56;;;;;;;3.63;0.40;;;;;;;6.08;100.00;100525.16;4950000;29;20054;-82
2023/03/04 01:34:24;;;;;;;2.88;0.50;;;;;;;6.03;100.00;100524.09;4940050;28;20062;-85
2023/03/04 01:36:53;;;;;;;2.40;0.43;;;;;;;6.03;100.00;100521.53;4952240;29;20421;-83
2023/03/04 01:39:21;;;;;;;3.53;0.80;;;;;;;6.04;100.00;100519.00;4945007;28;20485;-83
2023/03/04 01:41:50;;;;;;;1.52;0.38;;;;;;;6.03;100.00;100516.38;4950997;28;20053;-76
2023/03/04 01:44:20;;;;;;;1.40;0.50;;;;;;;6.03;100.00;100511.25;4948366;28;20062;-75
2023/03/04 01:46:52;;;;;;;3.03;1.77;;;;;;;6.04;100.00;100503.59;4956061;28;20057;-76
2023/03/04 01:49:21;;;;;;;4.20;1.23;;;;;;;6.05;100.00;100495.09;4954403;28;20050;-76
2023/03/04 01:51:53;;;;;;;1.23;0.60;;;;;;;6.07;100.00;100497.75;4947861;28;20039;-76
2023/03/04 01:54:22;;;;;;;2.58;0.82;;;;;;;6.07;100.00;100496.03;4947292;28;20052;-76
2023/03/04 01:56:53;;;;;;;3.55;0.90;;;;;;;6.07;100.00;100488.34;4951497;28;20051;-75
2023/03/04 01:59:24;;;;;;;0.90;0.30;;;;;;;6.08;100.00;100484.94;4953366;28;20047;-75
2023/03/04 02:01:55;;;;;;;1.17;0.60;;;;;;;6.07;100.00;100483.19;4942860;28;20059;-75
2023/03/04 02:04:26;;;;;;;2.05;0.57;;;;;;;6.10;100.00;100471.31;4953418;28;20047;-75
2023/03/04 02:06:56;;;;;;;2.03;0.50;;;;;;;6.10;100.00;100472.19;4947658;28;20477;-75
2023/03/04 02:09:25;;;;;;;1.80;0.88;;;;;;;6.12;100.00;100464.53;4938259;29;20731;-75
2023/03/04 02:11:54;;;;;;;1.17;0.68;;;;;;;6.13;100.00;100461.16;4937043;29;20044;-75
2023/03/04 02:14:24;;;;;;;1.40;1.10;;;;;;;6.11;100.00;100457.63;4936960;29;20494;-76
2023/03/04 02:16:53;;;;;;;1.45;0.68;;;;;;;6.11;100.00;100453.38;4933565;29;20047;-75
2023/03/04 02:19:36;;;;;;;1.90;0.80;;;;;;;6.12;100.00;100459.41;4933472;29;20497;-76
2023/03/04 02:22:13;;;;;;;2.33;0.90;;;;;;;6.07;100.00;100448.94;4942075;29;20102;-75
2023/03/04 02:24:47;;;;;;;1.33;0.80;;;;;;;6.13;100.00;100459.44;4945359;29;20142;-77
2023/03/04 02:27:17;;;;;;;1.58;0.70;;;;;;;6.12;100.00;100454.28;4934139;29;20051;-76
2023/03/04 02:29:45;;;;;;;3.10;0.90;;;;;;;6.08;100.00;100443.84;4942268;29;20677;-79
2023/03/04 02:32:15;;;;;;;1.33;0.68;;;;;;;6.09;100.00;100439.56;4934382;29;20679;-81
2023/03/04 02:34:48;;;;;;;3.88;1.20;;;;;;;6.12;100.00;100438.84;4942685;29;20048;-85
2023/03/04 02:37:17;;;;;;;2.92;0.75;;;;;;;6.11;100.00;100435.38;4930152;29;20051;-77
2023/03/04 02:39:48;;;;;;;3.00;0.95;;;;;;;6.08;100.00;100438.69;4935298;29;20047;-81
2023/03/04 02:42:18;;;;;;;2.03;0.63;;;;;;;6.08;100.00;100427.56;4930542;29;20051;-81
2023/03/04 02:44:49;;;;;;;4.00;1.00;;;;;;;6.04;100.00;100428.25;4939744;29;20582;-81
2023/03/04 02:47:19;;;;;;;1.15;0.82;;;;;;;5.93;100.00;100421.72;4937108;29;20051;-81
2023/03/04 02:49:50;;;;;;;1.60;0.80;;;;;;;5.86;100.00;100421.50;4944590;29;20059;-73
2023/03/04 02:52:21;;;;;;;2.40;1.05;;;;;;;5.79;100.00;100419.44;4935394;29;20087;-76
2023/03/04 02:54:50;;;;;;;4.03;1.20;;;;;;;5.73;100.00;100411.50;4923673;29;20044;-75
2023/03/04 02:57:20;;;;;;;2.47;1.00;;;;;;;5.67;100.00;100412.09;4935081;28;20104;-74
2023/03/04 02:59:49;;;;;;;1.30;0.63;;;;;;;5.60;100.00;100410.06;4939299;29;20157;-74
2023/03/04 03:02:18;;;;;;;1.35;0.40;;;;;;;5.46;100.00;100413.72;4935679;29;20071;-74
2023/03/04 03:04:46;;;;;;;2.65;0.75;;;;;;;5.39;100.00;100412.56;4938947;29;20059;-74
2023/03/04 03:07:15;;;;;;;2.15;0.52;;;;;;;5.35;100.00;100405.53;4945116;28;20066;-74
2023/03/04 03:09:43;;;;;;;1.40;0.70;;;;;;;5.31;100.00;100403.63;4970674;28;20058;-74
2023/03/04 03:12:12;;;;;;;2.05;0.70;;;;;;;5.25;100.00;100383.75;4980519;28;20046;-74
2023/03/04 03:14:42;;;;;;;4.97;0.65;;;;;;;5.32;100.00;100386.59;4973536;28;20058;-72
2023/03/04 03:17:11;;;;;;;0.85;0.45;;;;;;;5.32;100.00;100384.03;4970573;28;20043;-73
2023/03/04 03:19:39;;;;;;;1.45;0.40;;;;;;;5.25;100.00;100383.75;4962581;28;20047;-73
2023/03/04 03:22:08;;;;;;;1.55;0.60;;;;;;;5.21;100.00;100381.84;4966861;28;20054;-73
2023/03/04 03:24:36;;;;;;;2.25;0.47;;;;;;;5.14;100.00;100381.50;4971185;28;20420;-78
2023/03/04 03:27:05;;;;;;;6.18;0.80;;;;;;;5.05;100.00;100381.97;4971394;28;20069;-78
2023/03/04 03:29:34;;;;;;;5.97;0.75;;;;;;;5.09;100.00;100380.44;4970676;28;20050;-77
2023/03/04 03:32:04;;;;;;;1.85;0.77;;;;;;;5.10;100.00;100366.78;4965659;28;20038;-79
2023/03/04 03:34:32;;;;;;;0.93;0.40;;;;;;;5.03;100.00;100378.44;4973874;28;20543;-78
2023/03/04 03:37:01;;;;;;;5.45;0.90;;;;;;;5.03;100.00;100365.63;4969149;28;20485;-79
2023/03/04 03:39:29;;;;;;;2.42;0.75;;;;;;;5.05;100.00;100364.00;4969014;28;20074;-78
2023/03/04 03:41:58;;;;;;;1.88;0.80;;;;;;;5.06;100.00;100360.63;4973914;28;20444;-77
2023/03/04 03:44:26;;;;;;;1.45;0.60;;;;;;;5.08;100.00;100348.75;4972078;28;20070;-79
2023/03/04 03:46:55;;;;;;;0.77;0.50;;;;;;;5.11;100.00;100351.47;4974175;28;20053;-79
2023/03/04 03:49:25;;;;;;;3.33;0.65;;;;;;;5.04;100.00;100337.50;4971284;28;20525;-77
2023/03/04 03:51:54;;;;;;;4.50;0.85;;;;;;;5.01;100.00;100334.78;4963148;28;20233;-78
2023/03/04 03:54:23;;;;;;;5.32;0.80;;;;;;;5.03;100.00;100332.28;4969239;28;20611;-80
2023/03/04 03:56:51;;;;;;;1.92;0.70;;;;;;;4.99;100.00;100331.28;4965961;28;20043;-79
2023/03/04 03:59:20;;;;;;;3.70;1.05;;;;;;;4.99;100.00;100333.84;4970840;28;20062;-77
2023/03/04 04:01:48;;;;;;;1.50;0.60;;;;;;;4.93;100.00;100332.69;4972988;28;20149;-79
2023/03/04 04:04:17;;;;;;;2.85;1.13;;;;;;;4.92;100.00;100321.53;4963435;28;20394;-76
2023/03/04 04:06:47;;;;;;;5.20;1.38;;;;;;;4.90;100.00;100327.41;4965000;28;20067;-79
2023/03/04 04:09:16;;;;;;;2.42;0.88;;;;;;;4.88;100.00;100314.53;4962359;28;20054;-74
2023/03/04 04:11:44;;;;;;;1.67;1.02;;;;;;;4.89;100.00;100315.41;4973123;28;20419;-78
2023/03/04 04:14:50;;;;;;;8.32;0.98;;;;;;;4.89;100.00;100315.41;4776730;27;8851248;-79
2023/03/04 04:17:18;;;;;;;2.95;1.10;;;;;;;4.83;100.00;100316.91;5083129;28;20037;-77
2023/03/04 04:19:47;;;;;;;1.40;0.70;;;;;;;4.81;100.00;100313.38;5084772;28;20052;-78
2023/03/04 04:22:17;;;;;;;2.65;1.00;;;;;;;4.85;100.00;100303.25;5083492;28;20502;-76
2023/03/04 04:24:46;;;;;;;2.75;0.40;;;;;;;4.82;100.00;100294.63;5085523;28;20055;-76
2023/03/04 04:27:15;;;;;;;2.80;0.70;;;;;;;4.88;100.00;100286.34;5083471;28;20044;-76
2023/03/04 04:29:45;;;;;;;1.05;0.40;;;;;;;4.79;100.00;100288.50;5081248;28;20052;-79
2023/03/04 04:32:13;;;;;;;1.55;0.47;;;;;;;4.80;100.00;100285.97;5084495;28;20044;-76
2023/03/04 04:34:42;;;;;;;0.80;0.60;;;;;;;4.81;100.00;100280.06;5085343;28;20040;-79
2023/03/04 04:37:10;;;;;;;1.75;0.60;;;;;;;4.83;100.00;100288.69;5082770;28;20045;-79
2023/03/04 04:39:39;;;;;;;0.65;0.30;;;;;;;4.79;100.00;100281.69;5083687;28;20098;-76
2023/03/04 04:42:09;;;;;;;0.63;0.40;;;;;;;4.77;100.00;100290.09;5082715;28;20127;-80
2023/03/04 04:44:38;;;;;;;2.90;1.15;;;;;;;4.75;100.00;100277.22;5082148;28;20432;-77
2023/03/04 04:47:08;;;;;;;1.88;0.47;;;;;;;4.79;100.00;100281.69;5081329;28;20043;-78
2023/03/04 04:49:37;;;;;;;3.00;0.90;;;;;;;4.79;100.00;100279.13;5084028;28;20162;-79
2023/03/04 04:52:06;;;;;;;0.93;0.65;;;;;;;4.77;100.00;100275.59;5081506;28;20044;-76
2023/03/04 04:54:34;;;;;;;1.40;0.65;;;;;;;4.77;100.00;100260.22;5085262;28;20056;-77
2023/03/04 04:57:03;;;;;;;2.15;0.43;;;;;;;4.71;100.00;100252.25;5084913;28;20052;-78
2023/03/04 04:59:31;;;;;;;1.30;0.73;;;;;;;4.77;100.00;100249.09;5086991;28;20540;-80
2023/03/04 05:02:00;;;;;;;1.23;0.60;;;;;;;4.80;100.00;100255.22;5070885;28;20053;-82
2023/03/04 05:04:30;;;;;;;4.20;1.13;;;;;;;4.84;100.00;100248.56;5070134;28;20046;-81
2023/03/04 05:06:59;;;;;;;1.67;0.95;;;;;;;4.89;100.00;100253.88;5063024;28;20048;-79
2023/03/04 05:09:27;;;;;;;2.13;0.60;;;;;;;4.90;100.00;100246.28;5068615;28;20057;-76
2023/03/04 05:11:56;;;;;;;2.10;1.00;;;;;;;4.83;100.00;100240.00;5055285;28;20049;-79
2023/03/04 05:14:24;;;;;;;3.05;1.02;;;;;;;4.88;100.00;100234.16;5048537;28;20057;-73
2023/03/04 05:16:53;;;;;;;1.23;0.77;;;;;;;4.88;100.00;100232.50;5063101;28;20041;-73
2023/03/04 05:19:22;;;;;;;5.05;1.08;;;;;;;4.86;100.00;100230.69;5065439;28;20075;-75
2023/03/04 05:21:52;;;;;;;5.53;1.10;;;;;;;4.84;100.00;100220.34;5062383;28;20501;-74
2023/03/04 05:24:21;;;;;;;4.40;1.30;;;;;;;4.83;100.00;100229.75;5062697;28;20037;-74
2023/03/04 05:26:49;;;;;;;2.65;1.17;;;;;;;4.86;100.00;100223.00;5049838;28;20068;-74
2023/03/04 05:29:17;;;;;;;2.30;0.80;;;;;;;4.86;100.00;100223.00;5065524;28;20036;-74
2023/03/04 05:31:46;;;;;;;2.58;1.08;;;;;;;4.81;100.00;100221.09;5054405;28;20045;-74
2023/03/04 05:34:14;;;;;;;1.92;0.90;;;;;;;4.86;100.00;100220.44;5046715;28;20057;-74
2023/03/04 05:36:43;;;;;;;5.10;1.35;;;;;;;4.88;100.00;100212.00;5053416;28;20624;-73
2023/03/04 05:39:13;;;;;;;4.20;1.58;;;;;;;4.81;100.00;100205.72;5049163;28;20102;-74
2023/03/04 05:41:42;;;;;;;1.17;0.68;;;;;;;4.83;100.00;100198.97;5051348;28;20243;-79
2023/03/04 05:44:10;;;;;;;1.17;0.80;;;;;;;4.88;100.00;100190.59;5050828;28;20566;-75
2023/03/04 05:46:39;;;;;;;4.47;1.00;;;;;;;4.91;100.00;100207.00;5051734;28;20068;-79
2023/03/04 05:49:07;;;;;;;3.88;0.75;;;;;;;4.92;100.00;100198.47;5049753;28;20705;-79
2023/03/04 05:51:35;;;;;;;2.78;1.23;;;;;;;4.91;100.00;100198.44;5049955;28;20584;-76
2023/03/04 05:54:04;;;;;;;1.15;0.60;;;;;;;4.90;100.00;100188.97;5049874;28;20133;-77
2023/03/04 05:56:34;;;;;;;2.55;0.90;;;;;;;4.84;100.00;100189.59;5057790;28;20045;-77
2023/03/04 05:59:03;;;;;;;2.28;0.77;;;;;;;4.87;100.00;100176.91;5062282;28;20099;-79
2023/03/04 06:01:31;;;;;;;2.55;1.05;;;;;;;4.81;100.00;100174.97;5052778;28;20045;-72
2023/03/04 06:04:00;;;;;;;3.00;0.47;;;;;;;4.86;100.00;100182.00;5050123;28;20479;-77
2023/03/04 06:06:29;;;;;;;3.75;0.80;;;;;;;4.69;100.00;100176.97;5053497;28;20058;-77
2023/03/04 06:08:57;;;;;;;1.83;0.70;;;;;;;4.70;100.00;100170.19;5050041;28;20076;-75
2023/03/04 06:11:26;;;;;;;3.95;0.68;;;;;;;4.63;100.00;100163.91;5057772;28;20489;-76
2023/03/04 06:13:56;;;;;;;2.35;1.00;;;;;;;4.70;100.00;100165.94;5048897;28;20600;-77
2023/03/04 06:16:25;;;;;;;2.70;0.90;;;;;;;4.71;100.00;100162.56;5047162;28;20135;-78
2023/03/04 06:18:53;;;;;;;0.93;0.50;;;;;;;4.66;100.00;100158.03;5051127;28;20063;-78
2023/03/04 06:21:22;;;;;;;1.02;0.60;;;;;;;4.66;100.00;100153.78;5046768;28;20049;-76
2023/03/04 06:23:50;;;;;;;1.08;0.63;;;;;;;4.66;100.00;100148.66;5046472;28;20057;-78
2023/03/04 06:26:19;;;;;;;3.03;1.00;;;;;;;4.61;100.00;100145.03;5050495;28;20052;-77
2023/03/04 06:28:47;;;;;;;1.77;0.70;;;;;;;4.65;100.00;100143.47;5051671;28;20122;-78
2023/03/04 06:31:17;;;;;;;2.63;0.85;;;;;;;4.65;100.00;100146.03;5049426;28;20052;-79
2023/03/04 06:33:46;;;;;;;1.48;0.63;;;;;;;4.67;100.00;100135.03;5050857;28;20426;-77
2023/03/04 06:36:14;;;;;;;1.98;0.90;;;;;;;4.66;100.00;100135.84;5047371;28;20041;-79
2023/03/04 06:38:43;;;;;;;6.55;0.88;;;;;;;4.63;100.00;100110.09;5052043;28;20182;-80
2023/03/04 06:41:13;;;;;;;1.92;0.80;;;;;;;4.60;100.00;100103.16;5054958;28;20049;-76
2023/03/04 06:43:42;;;;;;;1.20;0.60;;;;;;;4.61;100.00;100096.34;5052089;28;20051;-77
2023/03/04 06:46:10;;;;;;;4.00;0.90;;;;;;;4.64;100.00;100101.59;5053924;28;20044;-78
2023/03/04 06:48:41;;;;;;;2.67;1.20;;;;;;;4.70;100.00;100094.19;5049410;28;20044;-77
2023/03/04 06:51:11;;;;;;;1.65;0.60;;;;;;;4.74;100.00;100088.38;5048947;28;20533;-78
2023/03/04 06:53:40;;;;;;;1.33;0.70;;;;;;;4.79;100.00;100081.75;5052177;28;20049;-79
2023/03/04 06:56:10;;;;;;;1.15;0.70;;;;;;;4.79;100.00;100081.75;5050534;28;20045;-78
2023/03/04 06:58:39;;;;;;;1.13;0.55;;;;;;;4.85;100.00;100087.94;5046041;28;20056;-77
2023/03/04 07:01:15;;;;;;;0.73;0.70;;;;;;;4.86;100.00;100074.31;5044871;28;20498;-73
2023/03/04 07:03:46;;;;;;;1.35;0.70;;;;;;;4.88;100.00;100067.53;5050949;28;20110;-76
2023/03/04 07:06:16;;;;;;;1.67;0.65;;;;;;;4.91;100.00;100057.44;5048230;28;20107;-77
2023/03/04 07:08:45;;;;;;;2.42;0.90;;;;;;;4.94;100.00;100049.88;5050356;28;20118;-80
2023/03/04 07:11:14;;;;;;;1.67;0.70;;;;;;;4.94;100.00;100047.31;5046169;28;20057;-79
2023/03/04 07:13:43;;;;;;;1.63;1.02;;;;;;;4.93;100.00;100040.44;5049154;27;20573;-77
2023/03/04 07:16:16;;;;;;;4.15;0.70;;;;;;;4.95;100.00;100041.38;5048639;28;20562;-80
2023/03/04 07:18:47;;;;;;;1.40;0.40;;;;;;;4.98;100.00;100038.94;5046877;28;20044;-77
2023/03/04 07:21:16;;;;;;;3.08;0.75;;;;;;;4.99;100.00;100038.09;5049706;28;20052;-79
2023/03/04 07:23:45;;;;;;;3.30;0.98;;;;;;;4.98;100.00;100034.66;5042183;28;20045;-76
2023/03/04 07:26:13;;;;;;;2.20;0.85;;;;;;;4.97;100.00;100025.25;5048213;28;20048;-76
2023/03/04 07:28:42;;;;;;;1.92;1.05;;;;;;;5.03;100.00;100022.03;5040031;28;20076;-73
2023/03/04 07:31:13;;;;;;;4.18;0.88;;;;;;;5.05;100.00;100017.84;5049345;28;20076;-72
2023/03/04 07:33:41;;;;;;;4.53;1.00;;;;;;;5.07;100.00;100012.78;5050044;28;20045;-72
2023/03/04 07:36:13;;;;;;;4.60;1.25;;;;;;;5.09;100.00;100006.91;5041003;28;20600;-72
2023/03/04 07:38:45;;;;;;;1.50;0.77;;;;;;;5.10;100.00;99998.38;5040375;28;20041;-75
2023/03/04 07:41:14;;;;;;;3.10;0.75;;;;;;;5.08;100.00;99992.31;5040808;28;20297;-76
2023/03/04 07:43:42;;;;;;;2.00;0.85;;;;;;;5.12;100.00;99981.38;5044025;28;20671;-74
2023/03/04 07:46:11;;;;;;;2.90;0.80;;;;;;;5.16;100.00;99984.94;5043098;28;20049;-73
2023/03/04 07:48:40;;;;;;;1.65;0.77;;;;;;;5.18;100.00;99980.75;5042776;28;20056;-72
2023/03/04 07:51:12;;;;;;;1.13;0.60;;;;;;;5.19;100.00;99975.66;5039189;28;20076;-73
2023/03/04 07:53:41;;;;;;;0.73;0.47;;;;;;;5.17;100.00;99969.59;5049133;28;20102;-74
2023/03/04 07:56:13;;;;;;;2.92;0.88;;;;;;;5.21;100.00;99973.16;5045213;28;20776;-74
2023/03/04 07:58:41;;;;;;;4.15;1.10;;;;;;;5.19;100.00;99961.97;5053070;28;20045;-74
2023/03/04 08:01:12;;;;;;;2.80;0.73;;;;;;;5.19;100.00;99967.97;5045086;28;20045;-74
2023/03/04 08:03:48;;;;;;;0.80;0.52;;;;;;;5.19;100.00;99957.69;5048584;28;20414;-73
2023/03/04 08:06:20;;;;;;;1.55;0.60;;;;;;;5.15;99.97;99952.41;5047483;28;20053;-74
2023/03/04 08:08:49;;;;;;;1.35;0.68;;;;;;;5.18;97.94;99955.97;5043863;28;20047;-73
2023/03/04 08:11:20;;;;;;;3.30;1.08;;;;;;;5.19;98.47;99944.88;5043330;28;20049;-75
2023/03/04 08:13:55;;;;;;;2.25;0.70;;;;;;;5.16;96.79;99931.94;5048825;27;20071;-74
2023/03/04 08:16:29;;;;;;;6.25;0.80;;;;;;;5.09;96.18;99935.09;5049453;28;20518;-74
2023/03/04 08:19:00;;;;;;;3.00;0.98;;;;;;;5.13;97.28;99936.97;5055611;28;20053;-75
2023/03/04 08:21:30;;;;;;;5.00;0.98;;;;;;;5.16;97.21;99926.81;5050951;28;20114;-75
2023/03/04 08:24:02;;;;;;;1.52;0.47;;;;;;;5.15;98.86;99927.63;5051209;28;20044;-76
2023/03/04 08:26:34;;;;;;;3.33;1.00;;;;;;;5.13;96.13;99920.69;5055188;28;20056;-76
2023/03/04 08:29:05;;;;;;;5.40;0.80;;;;;;;5.22;97.89;99918.47;5046283;28;20045;-76
2023/03/04 08:31:34;;;;;;;2.35;0.82;;;;;;;5.26;97.03;99920.34;5046097;28;20049;-77
2023/03/04 08:34:04;;;;;;;1.73;1.00;;;;;;;5.28;95.80;99911.00;5053792;28;20107;-74
2023/03/04 08:36:34;;;;;;;1.90;0.93;;;;;;;5.30;94.26;99913.66;5046727;28;20055;-72
2023/03/04 08:39:02;;;;;;;5.05;1.05;;;;;;;5.32;94.77;99906.88;5045566;28;20072;-73
2023/03/04 08:41:31;;;;;;;1.80;0.80;;;;;;;5.31;93.65;99900.84;5046750;28;20564;-72
2023/03/04 08:44:00;;;;;;;9.38;1.35;;;;;;;5.33;93.75;99890.66;5048833;28;21194;-72
2023/03/04 08:46:29;;;;;;;2.45;0.98;;;;;;;5.36;92.93;99883.06;5052054;28;20092;-72
2023/03/04 08:48:58;;;;;;;1.75;1.02;;;;;;;5.41;92.78;99879.00;5049910;28;20045;-72
2023/03/04 08:51:27;;;;;;;2.47;1.10;;;;;;;5.43;92.17;99877.38;5046313;28;20498;-72
2023/03/04 08:53:57;;;;;;;3.67;1.27;;;;;;;5.44;91.12;99867.13;5050927;28;20045;-73
2023/03/04 08:56:25;;;;;;;3.03;1.20;;;;;;;5.43;90.34;99867.09;5049750;28;20068;-72
2023/03/04 08:58:54;;;;;;;3.83;1.10;;;;;;;5.46;90.74;99864.63;5049442;28;20049;-72
2023/03/04 09:01:23;;;;;;;2.15;0.75;;;;;;;5.36;89.31;99837.78;5049668;28;20392;-72
2023/03/04 09:03:52;;;;;;;2.22;0.85;;;;;;;5.50;89.50;99856.25;5050834;28;20678;-72
2023/03/04 09:06:20;;;;;;;3.60;1.10;;;;;;;5.54;89.29;99841.81;5049802;28;20135;-73
2023/03/04 09:08:49;;;;;;;2.50;1.10;;;;;;;5.58;88.76;99844.53;5046986;28;20044;-72
2023/03/04 09:11:20;;;;;;;3.35;1.45;;;;;;;5.59;89.66;99841.16;5050772;28;20057;-72
2023/03/04 09:13:50;;;;;;;0.75;0.50;;;;;;;5.64;89.28;99838.75;5050245;28;20048;-72
2023/03/04 09:16:18;;;;;;;3.10;0.80;;;;;;;5.66;88.42;99831.97;5050771;28;20047;-72
2023/03/04 09:18:47;;;;;;;3.65;1.02;;;;;;;5.66;87.65;99835.41;5050101;28;20060;-72
2023/03/04 09:21:15;;;;;;;1.95;0.77;;;;;;;5.69;88.02;99831.22;5044775;28;20056;-72
2023/03/04 09:23:44;;;;;;;3.20;1.33;;;;;;;5.69;88.75;99831.22;5050312;28;20174;-71
2023/03/04 09:26:21;;;;;;;4.85;1.73;;;;;;;5.60;86.28;99845.47;5052323;28;20061;-71
2023/03/04 09:28:52;;;;;;;3.78;0.93;;;;;;;5.59;87.30;99832.56;5047289;28;20063;-72
2023/03/04 09:31:21;;;;;;;2.75;1.08;;;;;;;5.56;86.31;99824.78;5046505;28;20053;-73
2023/03/04 09:33:50;;;;;;;3.00;1.10;;;;;;;5.55;86.72;99818.78;5048781;28;20057;-73
2023/03/04 09:36:18;;;;;;;2.70;1.02;;;;;;;5.54;86.67;99804.19;5048066;28;20045;-72
2023/03/04 09:38:47;;;;;;;3.30;1.17;;;;;;;5.52;84.64;99793.03;5049870;28;20067;-72
2023/03/04 09:41:21;;;;;;;1.88;0.75;;;;;;;5.54;84.34;99783.66;5050498;28;20134;-72
2023/03/04 09:43:51;;;;;;;6.03;1.20;;;;;;;5.55;84.63;99782.84;5051472;28;20656;-73
2023/03/04 09:46:23;;;;;;;3.03;0.93;;;;;;;5.56;85.08;99774.31;5052935;28;20049;-71
2023/03/04 09:48:55;;;;;;;2.40;1.63;;;;;;;5.59;85.40;99773.53;5044068;28;20076;-72
2023/03/04 09:51:36;;;;;;;3.15;1.00;;;;;;;5.55;82.25;99761.47;5049449;28;20057;-72
2023/03/04 09:54:09;;;;;;;2.78;1.10;;;;;;;5.56;81.30;99764.06;5053866;28;20075;-72
2023/03/04 09:56:41;;;;;;;3.08;1.13;;;;;;;5.59;81.28;99746.22;5054554;28;20514;-73
2023/03/04 09:59:24;;;;;;;1.17;0.90;;;;;;;5.58;81.38;99741.88;5050882;28;20623;-72
2023/03/04 10:01:55;;;;;;;5.35;1.30;;;;;;;5.58;79.73;99731.63;5042140;28;20061;-72
2023/03/04 10:04:34;;;;;;;2.80;1.30;;;;;;;5.63;79.70;99714.69;5052928;28;20106;-72
2023/03/04 10:07:04;;;;;;;3.83;1.17;;;;;;;5.69;80.95;99705.44;5045830;28;20139;-73
2023/03/04 10:09:46;;;;;;;2.15;1.10;;;;;;;5.72;82.02;99693.56;5050867;28;20060;-71
2023/03/04 10:12:20;;;;;;;3.90;1.07;;;;;;;5.75;84.57;99687.66;5052048;28;20060;-72
2023/03/04 10:14:52;;;;;;;2.53;1.13;;;;;;;5.72;82.61;99673.03;5045834;28;20115;-72
2023/03/04 10:17:29;;;;;;;4.17;1.00;;;;;;;5.75;86.22;99664.56;5050430;28;20095;-73
2023/03/04 10:20:03;;;;;;;2.97;0.80;;;;;;;5.73;83.23;99663.66;5055295;28;20067;-72
2023/03/04 10:22:37;;;;;;;3.05;0.80;;;;;;;5.70;77.20;99656.72;5049579;28;20076;-74
2023/03/04 10:25:17;;;;;;;2.35;0.80;;;;;;;5.78;81.47;99646.72;5056857;28;20041;-72
2023/03/04 10:27:52;;;;;;;1.67;0.73;;;;;;;5.76;77.41;99648.34;5042504;28;20069;-73
2023/03/04 10:30:33;;;;;;;2.88;1.25;;;;;;;5.77;77.19;99637.25;5055617;28;20122;-73
2023/03/04 10:33:02;;;;;;;3.92;1.15;;;;;;;5.81;77.71;99632.25;5047879;28;20049;-72
2023/03/04 10:35:39;;;;;;;4.25;0.85;;;;;;;5.83;77.88;99635.75;5049229;28;20123;-72
2023/03/04 10:38:10;;;;;;;2.78;0.63;;;;;;;5.85;76.74;99617.81;5049510;28;20053;-72
2023/03/04 10:40:40;;;;;;;3.08;1.00;;;;;;;5.86;74.49;99609.28;5051300;28;20061;-73
2023/03/04 10:43:18;;;;;;;3.22;1.40;;;;;;;5.85;74.32;99612.69;5048858;28;20049;-73
2023/03/04 10:45:47;;;;;;;4.55;1.17;;;;;;;5.89;77.68;99596.56;5050144;28;20041;-73
2023/03/04 10:48:24;;;;;;;2.85;0.93;;;;;;;5.90;76.16;99592.28;5042039;28;20060;-73
2023/03/04 10:50:53;;;;;;;2.92;1.05;;;;;;;5.94;77.36;99586.44;5049770;28;20075;-73
2023/03/04 10:53:32;;;;;;;2.90;1.25;;;;;;;5.95;75.00;99577.91;5043677;28;20559;-73
2023/03/04 10:56:01;;;;;;;2.28;1.13;;;;;;;5.96;75.89;99570.28;5043919;28;20057;-73
2023/03/04 10:58:32;;;;;;;2.05;0.80;;;;;;;5.92;72.75;99568.41;5049702;28;20510;-76
2023/03/04 11:01:07;;;;;;;4.45;0.75;;;;;;;5.97;73.50;99564.28;5051171;28;20563;-73
2023/03/04 11:03:37;;;;;;;1.23;0.80;;;;;;;5.98;74.49;99568.63;5045599;28;20094;-74
2023/03/04 11:06:18;;;;;;;4.45;0.93;;;;;;;6.02;74.38;99555.03;5048989;28;20041;-74
2023/03/04 11:08:55;;;;;;;1.75;0.75;;;;;;;6.01;72.51;99544.72;5045526;28;20102;-73
2023/03/04 11:11:33;;;;;;;2.88;0.90;;;;;;;6.03;74.33;99540.50;5043849;28;20045;-74
2023/03/04 11:14:12;;;;;;;2.58;1.35;;;;;;;6.04;72.44;99530.25;5047434;28;20136;-74
2023/03/04 11:16:40;;;;;;;1.88;0.98;;;;;;;6.05;75.49;99526.88;5030389;28;20272;-73
2023/03/04 11:19:16;;;;;;;5.13;1.30;;;;;;;6.04;73.86;99527.69;5027197;28;20042;-73
2023/03/04 11:21:47;;;;;;;4.70;1.00;;;;;;;6.05;72.59;99518.31;5030364;28;20049;-73
2023/03/04 11:24:20;;;;;;;4.03;0.90;;;;;;;6.07;72.11;99517.53;5031483;28;20053;-73
2023/03/04 11:26:53;;;;;;;8.55;1.42;;;;;;;6.07;73.22;99496.97;5024765;28;20045;-73
2023/03/04 11:29:29;;;;;;;1.17;0.82;;;;;;;6.12;71.27;99493.69;5025539;28;20053;-74
2023/03/04 11:32:04;;;;;;;2.45;1.30;;;;;;;6.13;72.05;99490.25;5027917;28;20045;-74
2023/03/04 11:34:39;;;;;;;2.72;1.02;;;;;;;6.13;71.88;99480.84;5023733;28;20099;-74
2023/03/04 11:37:23;;;;;;;1.50;0.80;;;;;;;6.14;71.08;99474.00;5024634;28;20045;-74
2023/03/04 11:39:55;;;;;;;2.33;0.98;;;;;;;6.17;72.87;99474.13;5027518;28;20049;-74
2023/03/04 11:42:36;;;;;;;3.10;1.02;;;;;;;6.19;71.34;99465.63;5029399;28;20057;-74
2023/03/04 11:45:13;;;;;;;1.33;0.80;;;;;;;6.18;70.65;99463.00;5031235;28;20056;-73